Batman Airport

LTCJ · 巴特曼省, 土耳其

罗盘
风向 的 风向 220° Batman Airport 2/20
风: 3 kt, 1 beaufort

3 kt

1 kt
改变
0 ft 2.000 4.000 6.000 8.000 10.000
Cloud Cloud
FEW 4.000
Cloud Cloud Cloud Cloud Cloud Cloud
BKN 10.000
METAR LTCJ 032220Z 22003KT 9999 FEW040 BKN100 04/03 Q1015 NOSIG

METAR Batman Airport - LTCJ/BAL

Batman Airport是,土耳其中的中型机场。 该机场位于纬度37,92900和经度41,11660。 该机场有一条跑道: 2/20. 本场的ICAO机场代码为LTCJ。 该机场的IATA代码为BAL。 机场在Ankara FIR中。

该航空气象观测是针对Batman Airport在2024年3月4日 01:20, 当地时间进行的。

机场观察

风向为220°,速度为3 kt。

可见度为10 km 或者更多。

有几云在4.000 ft的高度 和 碎云在10.000 ft的高度。 破损或更高的上限为10.000 ft。

温度为4 °C,阵风为1 °C。 露点为3 °C,相对湿度为93%。 海平面上的气压为1015 hPa (QNH)。

白天

今天,太阳从06:43升起,在18:11降落。 这适用于Batman Airport,世界夏令时可能有所不同。 当地时间与世界标准时间之间的时差为+3 小时。 当前,没有夏令时有效。

公司介绍

我们没有关于这个机场的公司信息。

体会

到Vliegles.nl去找飞行课程,跳伞和其他飞行体验。 浏览页面,了解Batman Airport附近所有可用的活动。 你也可以使用搜索功能来寻找你所在地附近的特定飞行课程、跳伞或其他飞行体验。

跑道

Id 标题 侧风 逆风 侧风 %
2/20 026°-206° 3 kt 24 %

逆风成分最大的方向会被突出显示,并用于横风计算。 这并不一定意味着这个方向在使用。

乌云

4.000 ft FEW 几云
10.000 ft BKN 碎云

温度 & 天气

温度 4 °C
露点 3 °C
相对湿度 93%
风寒 1 °C
Kp-index 4 (0-9)

白天

日出
06:43 (5:11)
中午
12:27
日落
18:11

小工具

你想在你的网站上有一个关于Batman Airport的当前航空天气(METAR)的小部件吗?

显示HTML代码
?>